Aérodrome :
LOGIN :

S'inscrire | Disclaimer

   EN    FR    IT 

 










Légende :    VFR   VFR Marginal   IFR   IFR Intensif   IFR Très Intensif
Visi : 
Plafond : 
>= 8 km
>= 3000ft
5 à 8 km
1000 à 3000 ft
1500m à 5 km
500 à 1000 ft
800 à 1500m
200 à 500 ft
< 800m
< 200 ft
Symboles :   Orages  Brouillard  Fortes neiges  Fortes précipitations  Vent > 20 kt
SIGMETs :   Divers  Orages  Givrage  Turbulence  Onde Orograph.  Cendres Volcan.






- Altitude de l'aérodrome : 404 ft
- Code IATA : WRO


EPWR - Wroclaw

DERNIER METAR :
  • 191830Z 09002KT CAVOK 06/05 Q1018

METARs EXPIRÉS :
  • 191800Z 04003KT CAVOK 06/04 Q1018
  • 191730Z VRB01KT CAVOK 06/05 Q1018
  • 191700Z VRB02KT CAVOK 06/05 Q1018
  • 191630Z 05003KT CAVOK 06/05 Q1018
  • 191600Z VRB02KT CAVOK 07/05 Q1018

TAF TAF EPWR
Valide du 19 à 18h jusqu'au 20 à 18h UTC


191730Z 1918/2018 11005KT CAVOK
TEMPO 1920/2008 4000 BR
BECMG 2016/2018 BKN004



MET'MAP, la Météo Aéronautique d'un coup d'oeil ! - Copyright ORBIFLY Décembre 2007 - Disclaimer

ORBIFLY MET'MAP TEAM :

Programmation & Développement : Alexandra Zaïnal
Conception & Développement : Baudouin d'Aumeries
Co-Programmation & Développement : Marc-Olivier Méhu
Soutien technique & logistique : Manuel Goepfert

Contact : metmap@orbifly.com




SOURCES & CREDITS :

   NOAA